Time;durP1;ratioP1;P1;durP2;ratioP2;P2;SDS_P1;SDS_P2;PMS_P1;PMS_P2;Temp;Humidity;BMP_temperature;BMP_pressure;BME280_temperature;BME280_humidity;BME280_pressure;Samples;Min_cycle;Max_cycle;Signal;HPM_P1;HPM_P2
2023/09/19 00:00:15;;;;;;;4.22;1.50;;;17.80;99.90;;;;;;5055506;28;20078;-84
2023/09/19 00:02:40;;;;;;;8.30;2.10;;;17.80;99.90;;;;;;5021073;28;20017;-84
2023/09/19 00:05:09;;;;;;;5.32;2.25;;;17.80;99.90;;;;;;5020920;28;20045;-84
2023/09/19 00:07:36;;;;;;;5.53;2.30;;;17.80;99.90;;;;;;5021136;28;20071;-83
2023/09/19 00:10:02;;;;;;;5.72;2.30;;;17.80;99.90;;;;;;5021196;28;20065;-83
2023/09/19 00:12:28;;;;;;;6.53;2.15;;;17.80;99.90;;;;;;5020520;28;20029;-83
2023/09/19 00:14:54;;;;;;;7.63;2.50;;;17.80;99.90;;;;;;5020588;28;20068;-83
2023/09/19 00:17:19;;;;;;;6.70;2.67;;;17.80;99.90;;;;;;5037346;28;20024;-84
2023/09/19 00:19:46;;;;;;;5.13;1.92;;;17.80;99.90;;;;;;5020682;28;20036;-83
2023/09/19 00:22:13;;;;;;;6.05;2.25;;;17.80;99.90;;;;;;5021115;28;20022;-84
2023/09/19 00:24:38;;;;;;;7.40;2.20;;;17.80;99.90;;;;;;5036592;28;20024;-83
2023/09/19 00:27:05;;;;;;;6.65;2.00;;;17.80;99.90;;;;;;5004326;28;20025;-83
2023/09/19 00:29:31;;;;;;;6.60;2.40;;;17.80;99.90;;;;;;5020803;28;20033;-84
2023/09/19 00:31:57;;;;;;;5.68;1.80;;;17.80;99.90;;;;;;5021174;28;20023;-84
2023/09/19 00:34:23;;;;;;;5.03;1.67;;;17.70;99.90;;;;;;5037424;28;20115;-83
2023/09/19 00:36:52;;;;;;;4.93;1.75;;;17.80;99.90;;;;;;5020757;28;20437;-83
2023/09/19 00:39:20;;;;;;;4.95;1.77;;;17.70;99.90;;;;;;5031141;28;20025;-84
2023/09/19 00:41:45;;;;;;;4.45;1.85;;;17.80;99.90;;;;;;5019355;28;20037;-84
2023/09/19 00:44:11;;;;;;;4.07;1.38;;;17.70;99.90;;;;;;5020360;28;20471;-83
2023/09/19 00:46:38;;;;;;;7.47;1.95;;;17.70;99.90;;;;;;5020658;28;20068;-83
2023/09/19 00:49:03;;;;;;;3.47;1.63;;;17.80;99.90;;;;;;5020999;28;20032;-83
2023/09/19 00:51:29;;;;;;;5.00;1.35;;;17.70;99.90;;;;;;5037786;28;20021;-83
2023/09/19 00:53:55;;;;;;;3.97;1.35;;;17.80;99.90;;;;;;5037340;28;20504;-83
2023/09/19 00:56:21;;;;;;;8.07;2.03;;;17.70;99.90;;;;;;5021206;28;20158;-83
2023/09/19 00:58:47;;;;;;;4.97;1.60;;;17.70;99.90;;;;;;5052823;28;20024;-84
2023/09/19 01:01:16;;;;;;;4.88;1.80;;;17.70;99.90;;;;;;5044748;28;20001;-84
2023/09/19 01:03:42;;;;;;;6.43;2.75;;;17.70;99.90;;;;;;5061056;28;20033;-84
2023/09/19 01:06:08;;;;;;;6.85;2.70;;;17.70;99.90;;;;;;5044839;28;20052;-83
2023/09/19 01:08:35;;;;;;;6.53;2.08;;;17.70;99.90;;;;;;5042069;28;20036;-78
2023/09/19 01:11:16;;;;;;;6.68;2.50;;;17.70;99.90;;;;;;5020962;28;20025;-83
2023/09/19 01:14:14;;;;;;;5.55;1.85;;;17.70;99.90;;;;;;5035061;28;20051;-83
2023/09/19 01:17:03;;;;;;;6.07;2.28;;;17.70;99.90;;;;;;5016603;28;20400;-83
2023/09/19 01:19:47;;;;;;;6.47;2.30;;;17.70;99.90;;;;;;5034436;28;20496;-83
2023/09/19 01:22:25;;;;;;;7.13;2.45;;;17.70;99.90;;;;;;5027685;28;20017;-84
2023/09/19 01:25:00;;;;;;;8.30;2.72;;;17.70;99.90;;;;;;5034917;28;20100;-83
2023/09/19 01:28:03;;;;;;;7.63;2.30;;;17.70;99.90;;;;;;5053947;28;20024;-83
2023/09/19 01:30:36;;;;;;;10.80;2.80;;;17.70;99.90;;;;;;5053767;28;20078;-83
2023/09/19 01:33:03;;;;;;;7.80;2.35;;;17.60;99.90;;;;;;5036070;28;20411;-84
2023/09/19 01:35:29;;;;;;;6.88;2.00;;;17.60;99.90;;;;;;5020387;28;20349;-83
2023/09/19 01:37:55;;;;;;;8.25;2.30;;;17.60;99.90;;;;;;5053478;28;20021;-83
2023/09/19 01:40:22;;;;;;;7.13;2.50;;;17.60;99.90;;;;;;5019271;28;20029;-84
2023/09/19 01:42:59;;;;;;;7.10;2.83;;;17.50;99.90;;;;;;5053494;28;20108;-83
2023/09/19 01:45:37;;;;;;;8.75;2.58;;;17.50;99.90;;;;;;5035708;28;20025;-83
2023/09/19 01:48:38;;;;;;;9.48;2.28;;;17.50;99.90;;;;;;5053583;28;20048;-84
2023/09/19 01:51:10;;;;;;;7.70;2.17;;;17.50;99.90;;;;;;5016286;28;20061;-83
2023/09/19 01:54:03;;;;;;;8.52;2.33;;;17.50;99.90;;;;;;5033134;28;20100;-84
2023/09/19 01:56:45;;;;;;;6.68;2.17;;;17.50;99.90;;;;;;5016089;28;20100;-83
2023/09/19 01:59:16;;;;;;;9.93;2.10;;;17.50;99.90;;;;;;5040895;28;20051;-84
2023/09/19 02:01:44;;;;;;;6.47;2.25;;;17.40;99.90;;;;;;5035047;28;20028;-84
2023/09/19 02:04:10;;;;;;;8.75;2.70;;;17.40;99.90;;;;;;5035147;28;20435;-82
2023/09/19 02:06:40;;;;;;;7.60;2.28;;;17.40;99.90;;;;;;5053047;28;20017;-83
2023/09/19 02:09:06;;;;;;;8.73;2.33;;;17.40;99.90;;;;;;5019241;28;20033;-83
2023/09/19 02:11:32;;;;;;;9.10;2.33;;;17.30;99.90;;;;;;5035183;28;20082;-83
2023/09/19 02:13:59;;;;;;;8.32;2.58;;;17.30;99.90;;;;;;5052255;28;20021;-85
2023/09/19 02:16:25;;;;;;;10.00;2.65;;;17.30;99.90;;;;;;5035781;28;20024;-83
2023/09/19 02:18:51;;;;;;;8.80;1.90;;;17.30;99.90;;;;;;5035012;28;20029;-83
2023/09/19 02:21:17;;;;;;;8.07;2.03;;;17.30;99.90;;;;;;5053365;28;20356;-82
2023/09/19 02:23:47;;;;;;;6.53;2.30;;;17.30;99.90;;;;;;5035269;28;20044;-83
2023/09/19 02:26:13;;;;;;;6.80;2.38;;;17.20;99.90;;;;;;5053343;28;20074;-83
2023/09/19 02:28:39;;;;;;;6.47;2.60;;;17.20;99.90;;;;;;5034690;28;20040;-83
2023/09/19 02:31:05;;;;;;;5.47;2.35;;;17.10;99.90;;;;;;5018716;28;20025;-82
2023/09/19 02:33:32;;;;;;;6.13;2.50;;;17.10;99.90;;;;;;5031560;28;20067;-83
2023/09/19 02:35:58;;;;;;;9.00;2.30;;;17.10;99.90;;;;;;4999562;28;20021;-83
2023/09/19 02:38:25;;;;;;;9.82;2.15;;;17.00;99.90;;;;;;5010127;28;20036;-83
2023/09/19 02:40:55;;;;;;;7.43;1.98;;;17.00;99.90;;;;;;5036084;28;20024;-83
2023/09/19 02:43:21;;;;;;;7.65;2.08;;;17.00;99.90;;;;;;5036395;28;20020;-83
2023/09/19 02:45:49;;;;;;;9.25;2.20;;;17.00;99.90;;;;;;5020203;28;20024;-83
2023/09/19 02:48:16;;;;;;;8.40;2.33;;;17.00;99.90;;;;;;5074078;28;20005;-83
2023/09/19 02:50:42;;;;;;;9.02;2.40;;;17.00;99.90;;;;;;5060416;28;20048;-83
2023/09/19 02:53:08;;;;;;;5.07;1.98;;;16.90;99.90;;;;;;5043113;28;20009;-83
2023/09/19 02:55:34;;;;;;;5.55;2.03;;;16.90;99.90;;;;;;5060626;28;20028;-82
2023/09/19 02:58:01;;;;;;;4.95;1.90;;;16.90;99.90;;;;;;5026986;28;20056;-82
2023/09/19 03:00:27;;;;;;;8.88;2.22;;;16.90;99.90;;;;;;5043131;28;20055;-83
2023/09/19 03:02:55;;;;;;;9.20;2.22;;;16.80;99.90;;;;;;5041225;28;20033;-82
2023/09/19 03:05:23;;;;;;;8.25;2.00;;;16.80;99.90;;;;;;5023714;28;20465;-83
2023/09/19 03:07:50;;;;;;;6.63;2.20;;;16.80;99.90;;;;;;5022518;28;20032;-83
2023/09/19 03:10:16;;;;;;;8.25;2.45;;;16.80;99.90;;;;;;5038060;28;20031;-83
2023/09/19 03:12:42;;;;;;;8.95;2.33;;;16.70;99.90;;;;;;5020366;28;20055;-83
2023/09/19 03:15:11;;;;;;;7.60;2.22;;;16.70;99.90;;;;;;5005244;28;20462;-83
2023/09/19 03:17:37;;;;;;;5.97;2.30;;;16.60;99.90;;;;;;5022335;28;20068;-82
2023/09/19 03:20:08;;;;;;;7.90;2.22;;;16.60;99.90;;;;;;5056223;28;20556;-83
2023/09/19 03:22:34;;;;;;;6.05;2.20;;;16.60;99.90;;;;;;5038743;28;20049;-82
2023/09/19 03:25:00;;;;;;;4.45;2.10;;;16.60;99.90;;;;;;5038006;28;20025;-83
2023/09/19 03:27:27;;;;;;;4.80;2.10;;;16.60;99.90;;;;;;5038504;28;20380;-83
2023/09/19 03:29:53;;;;;;;7.70;2.25;;;16.50;99.90;;;;;;5021120;28;20061;-83
2023/09/19 03:32:19;;;;;;;6.78;2.63;;;16.50;99.90;;;;;;5038203;28;20028;-83
2023/09/19 03:34:45;;;;;;;7.68;2.22;;;16.50;99.90;;;;;;5021504;28;20072;-83
2023/09/19 03:37:11;;;;;;;5.47;2.13;;;16.50;99.90;;;;;;5021490;28;20032;-82
2023/09/19 03:39:36;;;;;;;11.30;2.40;;;16.50;99.90;;;;;;5021388;28;20056;-83
2023/09/19 03:42:03;;;;;;;9.57;2.08;;;16.40;99.90;;;;;;5004875;28;20032;-83
2023/09/19 03:44:30;;;;;;;10.52;2.42;;;16.40;99.90;;;;;;5038101;28;20082;-83
2023/09/19 03:46:56;;;;;;;7.43;1.98;;;16.40;99.90;;;;;;5021633;28;20021;-83
2023/09/19 03:49:22;;;;;;;5.80;1.80;;;16.40;99.90;;;;;;5021613;28;20021;-83
2023/09/19 03:51:48;;;;;;;6.75;2.30;;;16.40;99.90;;;;;;5005237;28;20051;-83
2023/09/19 03:54:14;;;;;;;6.28;2.38;;;16.40;99.90;;;;;;5037998;28;20062;-83
2023/09/19 03:56:39;;;;;;;5.82;2.15;;;16.30;99.90;;;;;;5037105;28;20048;-84
2023/09/19 03:59:05;;;;;;;5.78;2.03;;;16.30;99.90;;;;;;5021181;28;20025;-83
2023/09/19 04:01:33;;;;;;;6.88;2.40;;;16.30;99.90;;;;;;5021403;28;20094;-84
2023/09/19 04:04:07;;;;;;;6.40;2.20;;;16.30;99.90;;;;;;5005139;28;20029;-83
2023/09/19 04:06:36;;;;;;;7.47;2.00;;;16.30;99.80;;;;;;5035990;28;20063;-83
2023/09/19 04:09:03;;;;;;;7.03;2.22;;;16.30;99.80;;;;;;5017591;28;20025;-84
2023/09/19 04:11:30;;;;;;;7.97;2.10;;;16.30;99.70;;;;;;5018300;28;20087;-83
2023/09/19 04:13:56;;;;;;;5.47;1.70;;;16.20;99.60;;;;;;5025999;28;20059;-83
2023/09/19 04:16:22;;;;;;;5.97;2.00;;;16.20;99.60;;;;;;5037088;28;20597;-83
2023/09/19 04:18:48;;;;;;;4.32;2.30;;;16.20;99.60;;;;;;5021530;28;20042;-83
2023/09/19 04:21:13;;;;;;;8.32;2.30;;;16.20;99.60;;;;;;5021304;28;20071;-83
2023/09/19 04:23:39;;;;;;;5.32;1.77;;;16.10;99.50;;;;;;5037983;28;20025;-83
2023/09/19 04:26:05;;;;;;;9.02;2.15;;;16.10;99.50;;;;;;5022551;28;20349;-83
2023/09/19 04:28:33;;;;;;;7.70;1.80;;;16.10;99.50;;;;;;5059892;28;20544;-83
2023/09/19 04:30:59;;;;;;;7.13;2.40;;;16.10;99.50;;;;;;5044285;28;20029;-83
2023/09/19 04:33:27;;;;;;;6.28;1.80;;;16.20;99.50;;;;;;5036024;28;20024;-83
2023/09/19 04:35:52;;;;;;;8.57;1.90;;;16.10;99.40;;;;;;5059910;28;20013;-83
2023/09/19 04:38:21;;;;;;;5.60;2.10;;;16.10;99.30;;;;;;5042765;28;20019;-82
2023/09/19 04:40:47;;;;;;;8.27;2.05;;;16.00;99.30;;;;;;5044612;28;20021;-83
2023/09/19 04:43:13;;;;;;;4.72;1.90;;;16.10;99.40;;;;;;5059164;28;20023;-79
2023/09/19 04:45:42;;;;;;;6.57;2.15;;;16.10;99.40;;;;;;5054247;28;20029;-82
2023/09/19 04:48:08;;;;;;;6.47;2.08;;;16.10;99.40;;;;;;5054873;28;20013;-82
2023/09/19 04:50:34;;;;;;;8.20;2.58;;;16.10;99.30;;;;;;5019775;28;20033;-82
2023/09/19 04:53:00;;;;;;;5.10;2.22;;;16.10;99.30;;;;;;5036047;28;20468;-82
2023/09/19 04:55:27;;;;;;;6.00;1.90;;;16.10;99.30;;;;;;5019296;28;20063;-82
2023/09/19 04:57:53;;;;;;;6.20;2.13;;;16.10;99.20;;;;;;5036235;28;20009;-82
2023/09/19 05:00:27;;;;;;;4.57;1.90;;;16.10;99.20;;;;;;5035174;28;20404;-83
2023/09/19 05:02:56;;;;;;;7.15;2.08;;;16.10;99.20;;;;;;5016902;28;20366;-83
2023/09/19 05:05:23;;;;;;;8.55;2.00;;;16.10;99.40;;;;;;5023314;28;20428;-83
2023/09/19 05:07:49;;;;;;;5.40;1.85;;;16.00;99.10;;;;;;5036561;28;20017;-83
2023/09/19 05:10:18;;;;;;;4.55;1.67;;;16.00;99.20;;;;;;5019450;28;20036;-82
2023/09/19 05:12:47;;;;;;;6.65;2.38;;;16.00;99.20;;;;;;5020114;28;20029;-82
2023/09/19 05:15:14;;;;;;;7.88;1.83;;;16.00;99.20;;;;;;5035591;28;20052;-82
2023/09/19 05:17:40;;;;;;;7.00;1.90;;;16.00;99.20;;;;;;5036693;28;20025;-83
2023/09/19 05:20:16;;;;;;;7.03;2.13;;;16.00;99.20;;;;;;5032987;28;20437;-82
2023/09/19 05:22:43;;;;;;;5.82;2.05;;;16.00;99.20;;;;;;5020316;28;20031;-82
2023/09/19 05:25:10;;;;;;;9.70;1.92;;;16.00;99.30;;;;;;5035125;28;20021;-82
2023/09/19 05:27:35;;;;;;;5.28;2.00;;;16.00;99.20;;;;;;5010288;28;20026;-82
2023/09/19 05:30:01;;;;;;;4.40;1.83;;;16.00;99.20;;;;;;5015979;28;20510;-81
2023/09/19 05:32:27;;;;;;;7.13;2.30;;;16.00;99.20;;;;;;5002215;28;20071;-81
2023/09/19 05:34:53;;;;;;;5.18;1.70;;;16.00;99.20;;;;;;5001679;28;20079;-81
2023/09/19 05:37:19;;;;;;;7.47;1.90;;;16.00;99.20;;;;;;5019065;28;20025;-81
2023/09/19 05:39:45;;;;;;;6.93;1.90;;;16.00;99.20;;;;;;5018961;28;20035;-81
2023/09/19 05:42:11;;;;;;;6.03;1.90;;;16.00;99.30;;;;;;5019148;28;20017;-81
2023/09/19 05:44:36;;;;;;;7.90;2.22;;;16.00;99.30;;;;;;5019004;28;20529;-81
2023/09/19 05:47:05;;;;;;;3.95;1.90;;;16.00;99.30;;;;;;5019413;28;20368;-81
2023/09/19 05:49:31;;;;;;;5.88;2.13;;;16.00;99.40;;;;;;5019393;28;20025;-81
2023/09/19 05:51:58;;;;;;;8.30;2.15;;;16.00;99.30;;;;;;5019401;28;20032;-81
2023/09/19 05:54:24;;;;;;;11.30;1.83;;;16.00;99.40;;;;;;5019146;28;20036;-81
2023/09/19 05:56:52;;;;;;;5.78;1.98;;;16.10;99.40;;;;;;5018497;28;20028;-81
2023/09/19 05:59:19;;;;;;;5.60;1.73;;;16.10;99.40;;;;;;5003645;28;20029;-81
2023/09/19 06:01:46;;;;;;;5.75;2.00;;;16.10;99.50;;;;;;5036445;28;20029;-81
2023/09/19 06:04:11;;;;;;;7.57;2.00;;;16.10;99.50;;;;;;5019067;28;20017;-81
2023/09/19 06:06:39;;;;;;;5.70;1.92;;;16.20;99.50;;;;;;5019028;28;20021;-81
2023/09/19 06:09:06;;;;;;;7.28;2.20;;;16.20;99.50;;;;;;5019337;28;20392;-81
2023/09/19 06:11:34;;;;;;;7.13;1.92;;;16.20;99.50;;;;;;5015924;28;20033;-81
2023/09/19 06:14:02;;;;;;;5.93;2.10;;;16.20;99.50;;;;;;5051273;28;21692;-81
2023/09/19 06:16:29;;;;;;;7.60;2.08;;;16.20;99.50;;;;;;5036151;28;20066;-81
2023/09/19 06:18:55;;;;;;;8.23;1.92;;;16.20;99.60;;;;;;5046610;28;20021;-81
2023/09/19 06:21:26;;;;;;;5.35;2.10;;;16.20;99.60;;;;;;5060265;28;20009;-81
2023/09/19 06:23:52;;;;;;;;;;;16.30;99.70;;;;;;5044960;28;20019;-82
2023/09/19 06:26:18;;;;;;;6.70;1.90;;;16.30;99.60;;;;;;5076862;28;19892;-81
2023/09/19 06:28:43;;;;;;;6.68;1.80;;;16.30;99.70;;;;;;5076581;28;20067;-81
2023/09/19 06:31:09;;;;;;;4.65;1.55;;;16.30;99.70;;;;;;5023906;28;20120;-84
2023/09/19 06:33:47;;;;;;;11.60;2.13;;;16.30;99.80;;;;;;5053241;28;20021;-81
2023/09/19 06:36:13;;;;;;;7.53;2.20;;;16.30;99.80;;;;;;5035029;28;20025;-81
2023/09/19 06:38:39;;;;;;;6.45;2.00;;;16.30;99.80;;;;;;5036373;28;20028;-81
2023/09/19 06:41:08;;;;;;;7.32;2.30;;;16.40;99.80;;;;;;5039342;28;20522;-81
2023/09/19 06:43:34;;;;;;;7.95;2.08;;;16.40;99.90;;;;;;5038732;28;20033;-81
2023/09/19 06:46:01;;;;;;;6.20;1.73;;;16.40;99.90;;;;;;5022953;28;20461;-81
2023/09/19 06:48:26;;;;;;;6.28;2.40;;;16.50;99.90;;;;;;5057081;28;20074;-83
2023/09/19 06:50:58;;;;;;;9.27;2.42;;;16.50;99.90;;;;;;5039019;28;20029;-81
2023/09/19 06:53:24;;;;;;;5.05;2.10;;;16.50;99.90;;;;;;5038633;28;20036;-81
2023/09/19 06:55:53;;;;;;;6.43;2.00;;;16.50;99.90;;;;;;5022923;28;20021;-81
2023/09/19 06:58:20;;;;;;;7.78;2.35;;;16.50;99.90;;;;;;5038322;28;20017;-81
2023/09/19 07:00:46;;;;;;;8.65;2.10;;;16.60;99.90;;;;;;5022839;28;20457;-82
2023/09/19 07:03:13;;;;;;;6.65;1.92;;;16.60;99.90;;;;;;5056875;28;20079;-81
2023/09/19 07:05:40;;;;;;;8.68;2.10;;;16.60;99.90;;;;;;5038714;28;20449;-81
2023/09/19 07:08:08;;;;;;;8.10;2.28;;;16.70;99.90;;;;;;5038906;28;20025;-81
2023/09/19 07:10:34;;;;;;;6.13;1.90;;;16.70;99.90;;;;;;5056618;28;20404;-81
2023/09/19 07:13:05;;;;;;;8.77;2.00;;;16.70;99.90;;;;;;5031130;28;20024;-81
2023/09/19 07:15:38;;;;;;;7.68;1.75;;;16.70;99.90;;;;;;5037885;28;20515;-81
2023/09/19 07:18:05;;;;;;;5.93;1.80;;;16.80;99.90;;;;;;5038401;28;20376;-81
2023/09/19 07:20:32;;;;;;;10.80;2.72;;;16.80;99.90;;;;;;5056049;28;20477;-81
2023/09/19 07:23:01;;;;;;;5.97;2.00;;;16.80;99.90;;;;;;5055977;28;20472;-81
2023/09/19 07:25:28;;;;;;;5.63;1.90;;;16.90;99.90;;;;;;5036986;28;20032;-82
2023/09/19 07:28:01;;;;;;;6.32;2.45;;;16.90;99.90;;;;;;5038562;28;20036;-81
2023/09/19 07:30:27;;;;;;;5.38;1.65;;;16.90;99.90;;;;;;5038355;28;20108;-81
2023/09/19 07:32:53;;;;;;;9.15;2.20;;;17.00;99.90;;;;;;5022267;28;20090;-81
2023/09/19 07:35:22;;;;;;;5.93;2.10;;;17.00;99.90;;;;;;5038500;28;20017;-82
2023/09/19 07:37:49;;;;;;;7.18;2.45;;;17.00;99.90;;;;;;5038669;28;20024;-82
2023/09/19 07:40:19;;;;;;;7.65;2.30;;;17.00;99.90;;;;;;5038439;28;20021;-82
2023/09/19 07:42:46;;;;;;;6.32;1.70;;;17.10;99.90;;;;;;5056461;28;20021;-82
2023/09/19 07:45:16;;;;;;;9.02;2.03;;;17.10;99.90;;;;;;5038664;28;20025;-82
2023/09/19 07:47:46;;;;;;;9.13;1.85;;;17.10;99.90;;;;;;5038740;28;20104;-81
2023/09/19 07:50:18;;;;;;;9.93;2.37;;;17.10;99.90;;;;;;5037573;28;20135;-82
2023/09/19 07:52:44;;;;;;;7.20;2.17;;;17.20;99.90;;;;;;5038734;28;20101;-82
2023/09/19 07:55:16;;;;;;;8.25;2.20;;;17.20;99.90;;;;;;5022064;28;20040;-82
2023/09/19 07:57:42;;;;;;;8.57;2.35;;;17.20;99.90;;;;;;5039051;28;20017;-82
2023/09/19 08:00:09;;;;;;;6.90;1.88;;;17.20;99.90;;;;;;5040857;28;20033;-82
2023/09/19 08:02:37;;;;;;;7.72;1.90;;;17.30;99.90;;;;;;5027666;28;20071;-81
2023/09/19 08:05:09;;;;;;;6.90;1.67;;;17.30;99.90;;;;;;5051893;28;20028;-79
2023/09/19 08:07:36;;;;;;;6.10;2.28;;;17.30;99.90;;;;;;5061854;28;20021;-82
2023/09/19 08:10:03;;;;;;;8.48;2.00;;;17.40;99.90;;;;;;5060444;28;20059;-80
2023/09/19 08:12:30;;;;;;;4.97;1.90;;;17.40;99.90;;;;;;5078576;28;20032;-81
2023/09/19 08:14:55;;;;;;;8.40;2.40;;;17.40;99.90;;;;;;5054907;28;20044;-82
2023/09/19 08:17:22;;;;;;;8.38;2.75;;;17.40;99.90;;;;;;5025345;28;20029;-82
2023/09/19 08:19:52;;;;;;;8.18;2.25;;;17.50;99.90;;;;;;5021646;28;20040;-81
2023/09/19 08:22:19;;;;;;;8.48;2.55;;;17.50;99.90;;;;;;5037874;28;20021;-82
2023/09/19 08:24:46;;;;;;;9.73;2.30;;;17.50;99.90;;;;;;5021045;28;20083;-82
2023/09/19 08:27:12;;;;;;;10.68;2.35;;;17.60;99.90;;;;;;5055537;28;20029;-81
2023/09/19 08:29:38;;;;;;;6.97;2.00;;;17.60;99.90;;;;;;5037327;28;20017;-82
2023/09/19 08:32:04;;;;;;;6.88;2.25;;;17.60;99.90;;;;;;5037818;28;20029;-81
2023/09/19 08:34:32;;;;;;;6.75;2.20;;;17.70;99.90;;;;;;5037298;28;20373;-82
2023/09/19 08:36:58;;;;;;;7.07;2.35;;;17.70;99.90;;;;;;5037806;28;20056;-82
2023/09/19 08:39:25;;;;;;;7.18;1.90;;;17.80;99.90;;;;;;5020829;28;20507;-82
2023/09/19 08:42:01;;;;;;;9.50;2.03;;;17.80;99.90;;;;;;5037276;28;20017;-82
2023/09/19 08:44:30;;;;;;;7.50;2.03;;;17.90;99.90;;;;;;5054851;28;20071;-82
2023/09/19 08:47:07;;;;;;;10.05;2.50;;;17.90;99.90;;;;;;5037013;28;20071;-82
2023/09/19 08:50:13;;;;;;;7.93;1.85;;;17.90;99.90;;;;;;5054929;28;20059;-82
2023/09/19 08:52:43;;;;;;;7.38;2.47;;;18.00;99.90;;;;;;5036550;28;20013;-82
2023/09/19 08:55:13;;;;;;;9.75;2.50;;;18.00;99.80;;;;;;5037225;28;20108;-81
2023/09/19 08:57:42;;;;;;;7.65;2.40;;;18.10;99.80;;;;;;5054336;28;20062;-81
2023/09/19 09:00:12;;;;;;;6.60;2.30;;;18.20;99.80;;;;;;5020844;28;20369;-82
2023/09/19 09:02:43;;;;;;;7.85;2.05;;;18.20;99.80;;;;;;5035825;28;20064;-81
2023/09/19 09:05:10;;;;;;;8.35;2.60;;;18.30;99.80;;;;;;5054710;28;20020;-82
2023/09/19 09:07:40;;;;;;;9.77;2.83;;;18.40;99.80;;;;;;5036498;28;20021;-82
2023/09/19 09:10:07;;;;;;;8.93;2.35;;;18.40;99.70;;;;;;5037247;28;20032;-82
2023/09/19 09:12:36;;;;;;;5.78;2.17;;;18.40;99.70;;;;;;5036598;28;20025;-82
2023/09/19 09:15:03;;;;;;;9.27;2.47;;;18.50;99.50;;;;;;5036385;28;20037;-82
2023/09/19 09:17:29;;;;;;;8.27;2.65;;;18.50;99.50;;;;;;5036732;28;20067;-82
2023/09/19 09:19:55;;;;;;;5.63;1.95;;;18.50;99.40;;;;;;5020139;28;20032;-82
2023/09/19 09:22:21;;;;;;;8.25;2.42;;;18.60;99.40;;;;;;5036370;28;20029;-82
2023/09/19 09:24:58;;;;;;;6.85;2.28;;;18.60;99.40;;;;;;5036539;28;20032;-82
2023/09/19 09:27:24;;;;;;;7.65;1.90;;;18.70;99.40;;;;;;5036502;28;20368;-82
2023/09/19 09:29:50;;;;;;;8.18;2.72;;;18.70;99.30;;;;;;5019574;28;20340;-82
2023/09/19 09:32:21;;;;;;;6.88;2.03;;;18.80;99.30;;;;;;5019911;28;20021;-82
2023/09/19 09:34:54;;;;;;;8.85;2.05;;;18.80;99.20;;;;;;5036251;28;20048;-82
2023/09/19 09:37:26;;;;;;;8.45;2.08;;;18.90;99.10;;;;;;5054424;28;20028;-82
2023/09/19 09:39:58;;;;;;;5.68;2.10;;;19.10;99.10;;;;;;5036293;28;20441;-82
2023/09/19 09:42:46;;;;;;;7.78;2.30;;;19.10;98.90;;;;;;5054132;28;20021;-82
2023/09/19 09:48:03;;;;;;;7.40;1.90;;;19.20;98.70;;;;;;5054460;28;20044;-82
2023/09/19 09:50:55;;;;;;;8.60;2.40;;;19.20;98.60;;;;;;5020718;28;20059;-82
2023/09/19 09:53:30;;;;;;;8.05;2.55;;;19.30;98.50;;;;;;5040298;28;20035;-82
2023/09/19 09:55:59;;;;;;;7.35;2.28;;;19.30;98.40;;;;;;5044427;28;20033;-82
2023/09/19 09:58:29;;;;;;;8.13;2.25;;;19.30;98.40;;;;;;5077752;28;20013;-82
2023/09/19 10:01:08;;;;;;;6.13;2.15;;;19.30;98.30;;;;;;5060088;28;20029;-81
2023/09/19 10:03:41;;;;;;;8.68;2.60;;;19.30;98.20;;;;;;5034382;28;20616;-82
2023/09/19 10:06:24;;;;;;;8.00;2.50;;;19.40;98.20;;;;;;5040956;28;20035;-82
2023/09/19 10:11:33;;;;;;;8.50;2.40;;;19.40;98.10;;;;;;5036388;28;20029;-81
2023/09/19 10:14:02;;;;;;;7.70;2.42;;;19.50;98.10;;;;;;5036143;28;20033;-81
2023/09/19 10:16:32;;;;;;;7.78;2.20;;;19.50;98.00;;;;;;5035227;28;20041;-82
2023/09/19 10:19:01;;;;;;;6.63;1.88;;;19.50;98.00;;;;;;5035475;28;20360;-81
2023/09/19 10:21:29;;;;;;;7.65;2.40;;;19.50;98.00;;;;;;5035600;28;20130;-83
2023/09/19 10:23:59;;;;;;;7.90;2.50;;;19.60;98.00;;;;;;5019351;28;20033;-82
2023/09/19 10:26:31;;;;;;;8.85;2.33;;;19.60;97.90;;;;;;5019576;28;20071;-82
2023/09/19 10:28:59;;;;;;;5.72;2.35;;;19.70;97.80;;;;;;5053174;28;20044;-82
2023/09/19 10:31:27;;;;;;;7.07;2.00;;;19.70;97.60;;;;;;5053444;28;20080;-82
2023/09/19 10:33:55;;;;;;;7.35;2.30;;;19.70;97.60;;;;;;5035311;28;20041;-82
2023/09/19 10:36:25;;;;;;;8.07;2.10;;;19.70;97.60;;;;;;5035387;28;20018;-82
2023/09/19 10:38:55;;;;;;;7.38;2.30;;;19.70;97.50;;;;;;5035301;28;20079;-82
2023/09/19 10:41:24;;;;;;;5.65;1.95;;;19.90;97.50;;;;;;5035425;28;20013;-83
2023/09/19 10:43:54;;;;;;;7.95;2.22;;;19.90;97.50;;;;;;5035430;28;20055;-83
2023/09/19 10:46:20;;;;;;;8.52;2.50;;;19.90;97.40;;;;;;5053004;28;20013;-82
2023/09/19 10:48:48;;;;;;;6.78;2.45;;;20.00;97.20;;;;;;5035164;28;20024;-82
2023/09/19 10:51:24;;;;;;;7.70;1.95;;;20.00;97.20;;;;;;5035432;28;20033;-83
2023/09/19 10:54:01;;;;;;;6.13;1.92;;;20.00;97.20;;;;;;5035263;28;20017;-82
2023/09/19 10:56:41;;;;;;;10.38;2.85;;;20.00;97.00;;;;;;5035180;28;20017;-82
2023/09/19 10:59:11;;;;;;;5.53;1.93;;;20.00;96.90;;;;;;5053177;28;20031;-83
2023/09/19 11:01:51;;;;;;;6.30;2.38;;;19.90;97.00;;;;;;5035167;28;20275;-82
2023/09/19 11:04:36;;;;;;;5.28;1.80;;;20.00;97.10;;;;;;5035380;28;20025;-82
2023/09/19 11:07:12;;;;;;;7.57;2.30;;;20.00;96.90;;;;;;5034937;28;20018;-83
2023/09/19 11:10:01;;;;;;;7.25;2.05;;;20.00;97.00;;;;;;5053034;28;20021;-82
2023/09/19 11:12:45;;;;;;;6.10;1.70;;;20.00;96.90;;;;;;5019383;28;20035;-82
2023/09/19 11:16:04;;;;;;;5.40;1.65;;;20.00;96.90;;;;;;5035153;28;20024;-83
2023/09/19 11:18:42;;;;;;;4.68;1.60;;;20.00;96.80;;;;;;5019680;28;20075;-82
2023/09/19 11:21:31;;;;;;;4.57;1.77;;;20.00;96.70;;;;;;5035160;28;20461;-83
2023/09/19 11:24:11;;;;;;;5.95;1.85;;;19.90;96.80;;;;;;5034796;28;20120;-82
2023/09/19 11:26:47;;;;;;;7.50;2.05;;;19.90;96.70;;;;;;5037706;28;20389;-83
2023/09/19 11:29:33;;;;;;;4.15;1.85;;;20.00;96.70;;;;;;5038878;28;20017;-82
2023/09/19 11:32:02;;;;;;;4.88;1.95;;;20.00;96.80;;;;;;5038579;28;20377;-82
2023/09/19 11:34:36;;;;;;;5.75;1.95;;;20.10;96.60;;;;;;5022531;28;20029;-82
2023/09/19 11:37:14;;;;;;;4.80;1.67;;;20.10;96.50;;;;;;5038406;28;20021;-82
2023/09/19 11:40:13;;;;;;;5.03;1.42;;;20.10;96.50;;;;;;5038725;28;20031;-82
2023/09/19 11:42:50;;;;;;;8.77;2.53;;;20.10;96.30;;;;;;5039096;28;20108;-82
2023/09/19 11:45:57;;;;;;;6.68;1.77;;;20.10;96.30;;;;;;5039306;28;20019;-82
2023/09/19 11:48:27;;;;;;;5.13;1.50;;;20.20;96.30;;;;;;5045447;28;20021;-82
2023/09/19 11:50:53;;;;;;;6.10;1.40;;;20.20;96.20;;;;;;5062862;28;20044;-82
2023/09/19 11:53:21;;;;;;;3.97;1.90;;;20.20;96.20;;;;;;5080377;28;20025;-81
2023/09/19 11:55:47;;;;;;;6.78;2.20;;;20.20;96.10;;;;;;5062544;28;20036;-82
2023/09/19 11:58:16;;;;;;;6.38;2.00;;;20.20;96.10;;;;;;5041000;28;20032;-82
2023/09/19 12:00:44;;;;;;;5.85;1.92;;;20.20;96.10;;;;;;5060296;28;20079;-82
2023/09/19 12:03:11;;;;;;;5.15;1.60;;;20.20;96.00;;;;;;5038583;28;20526;-82
2023/09/19 12:05:39;;;;;;;12.95;1.77;;;20.30;96.00;;;;;;5056151;28;20017;-82
2023/09/19 12:08:08;;;;;;;7.60;1.75;;;20.30;96.00;;;;;;5021342;28;20029;-82
2023/09/19 12:10:51;;;;;;;5.03;1.48;;;20.30;96.00;;;;;;5038527;28;20508;-82
2023/09/19 12:13:18;;;;;;;7.35;1.83;;;20.40;96.00;;;;;;5037668;28;20025;-82
2023/09/19 12:15:45;;;;;;;6.40;1.60;;;20.40;96.00;;;;;;5037752;28;20104;-82
2023/09/19 12:18:29;;;;;;;6.35;1.55;;;20.40;95.90;;;;;;5037696;28;20021;-82
2023/09/19 12:20:55;;;;;;;5.47;1.77;;;20.40;95.70;;;;;;5037738;28;20067;-82
2023/09/19 12:23:21;;;;;;;4.20;1.58;;;20.40;95.60;;;;;;5037744;28;20024;-82
2023/09/19 12:25:48;;;;;;;4.07;1.38;;;20.40;95.60;;;;;;5021362;28;20025;-82
2023/09/19 12:28:16;;;;;;;9.52;1.58;;;20.50;95.70;;;;;;5037457;28;20449;-82
2023/09/19 12:30:42;;;;;;;4.85;1.33;;;20.50;95.70;;;;;;5038029;28;20032;-82
2023/09/19 12:33:27;;;;;;;5.18;1.75;;;20.60;95.70;;;;;;5037371;28;20025;-82
2023/09/19 12:35:53;;;;;;;5.10;1.98;;;20.60;95.50;;;;;;5037724;28;20108;-82
2023/09/19 12:38:28;;;;;;;5.32;1.50;;;20.60;95.50;;;;;;5037240;28;20036;-82
2023/09/19 12:41:01;;;;;;;6.90;1.60;;;20.70;95.50;;;;;;5021019;28;20112;-82
2023/09/19 12:43:32;;;;;;;3.60;1.42;;;20.70;95.50;;;;;;5021131;28;20036;-82
2023/09/19 12:45:59;;;;;;;2.75;1.10;;;20.70;95.30;;;;;;5037178;28;20032;-82
2023/09/19 12:48:31;;;;;;;4.07;1.27;;;20.70;95.40;;;;;;5036802;28;20094;-82
2023/09/19 12:51:16;;;;;;;3.33;1.40;;;20.70;95.20;;;;;;5054793;28;20021;-83
2023/09/19 12:53:50;;;;;;;2.35;1.00;;;20.60;95.00;;;;;;5037648;28;20109;-82
2023/09/19 12:56:18;;;;;;;4.13;1.00;;;20.60;95.10;;;;;;5036434;28;20029;-82
2023/09/19 12:58:55;;;;;;;3.72;1.13;;;20.60;95.10;;;;;;5020717;28;20179;-83
2023/09/19 13:01:27;;;;;;;3.92;1.10;;;20.60;95.10;;;;;;5054519;28;20357;-83
2023/09/19 13:04:19;;;;;;;3.85;1.15;;;20.60;95.00;;;;;;5021185;28;20017;-82